Time;durP1;ratioP1;P1;durP2;ratioP2;P2;SDS_P1;SDS_P2;PMS_P1;PMS_P2;Temp;Humidity;BMP_temperature;BMP_pressure;BME280_temperature;BME280_humidity;BME280_pressure;Samples;Min_cycle;Max_cycle;Signal;HPM_P1;HPM_P2
2023/03/09 00:00:10;;;;;;;45.10;21.98;;;0.90;99.90;;;;;;5033543;28;20196;-74
2023/03/09 00:02:37;;;;;;;54.50;23.80;;;0.90;99.90;;;;;;5032534;28;20141;-74
2023/03/09 00:05:06;;;;;;;44.35;19.50;;;0.90;99.90;;;;;;5032261;28;20040;-74
2023/03/09 00:07:32;;;;;;;40.65;20.00;;;0.90;99.90;;;;;;5030210;28;20044;-75
2023/03/09 00:09:59;;;;;;;37.65;18.02;;;0.90;99.90;;;;;;5029419;28;20055;-74
2023/03/09 00:12:26;;;;;;;38.80;19.88;;;0.90;99.90;;;;;;5031502;28;20595;-73
2023/03/09 00:14:53;;;;;;;35.58;18.58;;;0.90;99.90;;;;;;5035272;28;20702;-74
2023/03/09 00:17:20;;;;;;;34.05;17.23;;;0.90;99.90;;;;;;5030022;28;20219;-74
2023/03/09 00:19:47;;;;;;;34.20;17.73;;;0.90;99.90;;;;;;5047577;28;20220;-73
2023/03/09 00:22:14;;;;;;;30.80;15.80;;;0.90;99.90;;;;;;5032137;28;20051;-73
2023/03/09 00:24:46;;;;;;;32.50;15.77;;;0.90;99.90;;;;;;5034967;28;20402;-74
2023/03/09 00:27:14;;;;;;;27.35;14.63;;;0.90;99.90;;;;;;5034507;28;20079;-73
2023/03/09 00:29:40;;;;;;;30.55;15.43;;;0.90;99.90;;;;;;5045834;28;20995;-74
2023/03/09 00:32:07;;;;;;;28.42;14.50;;;0.80;99.90;;;;;;5047155;28;20541;-74
2023/03/09 00:34:34;;;;;;;26.60;14.90;;;0.90;99.90;;;;;;5034004;28;20460;-74
2023/03/09 00:37:00;;;;;;;28.27;14.32;;;0.90;99.90;;;;;;5035355;28;20960;-74
2023/03/09 00:39:28;;;;;;;25.25;14.15;;;0.90;99.90;;;;;;5032498;28;20037;-74
2023/03/09 00:41:55;;;;;;;26.98;15.18;;;0.90;99.90;;;;;;5040589;28;20067;-75
2023/03/09 00:44:22;;;;;;;27.33;14.45;;;0.90;99.90;;;;;;5032841;28;20044;-74
2023/03/09 00:46:48;;;;;;;30.80;15.45;;;0.90;99.90;;;;;;5030626;28;20454;-75
2023/03/09 00:49:15;;;;;;;24.20;14.68;;;0.90;99.90;;;;;;5049787;28;20268;-75
2023/03/09 00:51:42;;;;;;;28.48;14.95;;;0.90;99.90;;;;;;5029510;28;20332;-75
2023/03/09 00:54:11;;;;;;;32.03;16.77;;;0.90;99.90;;;;;;5034829;28;20140;-73
2023/03/09 00:56:37;;;;;;;26.65;14.57;;;0.90;99.90;;;;;;5029169;28;20053;-74
2023/03/09 00:59:05;;;;;;;33.20;17.17;;;0.90;99.90;;;;;;5019328;28;20077;-75
2023/03/09 01:01:32;;;;;;;35.13;18.08;;;0.90;99.90;;;;;;5029863;28;20043;-75
2023/03/09 01:03:59;;;;;;;35.72;18.90;;;1.00;99.90;;;;;;5034363;28;20075;-75
2023/03/09 01:06:26;;;;;;;33.45;17.17;;;1.10;99.90;;;;;;5032670;28;20594;-75
2023/03/09 01:08:53;;;;;;;40.08;19.67;;;1.00;99.90;;;;;;5034441;28;20067;-75
2023/03/09 01:11:21;;;;;;;43.90;20.15;;;1.00;99.90;;;;;;5032851;28;20049;-75
2023/03/09 01:13:49;;;;;;;36.13;18.63;;;1.00;99.90;;;;;;5032694;28;20288;-74
2023/03/09 01:16:15;;;;;;;44.85;20.45;;;1.00;99.90;;;;;;5032154;28;20052;-74
2023/03/09 01:18:42;;;;;;;41.50;18.65;;;1.10;99.90;;;;;;5034820;28;20069;-74
2023/03/09 01:21:10;;;;;;;37.45;18.88;;;0.90;99.90;;;;;;5031776;28;20395;-74
2023/03/09 01:23:38;;;;;;;37.33;18.70;;;0.90;99.90;;;;;;5030644;28;20482;-76
2023/03/09 01:26:07;;;;;;;37.40;18.48;;;0.90;99.90;;;;;;5033148;28;20045;-75
2023/03/09 01:28:36;;;;;;;39.65;19.17;;;0.90;99.90;;;;;;5032391;28;20053;-75
2023/03/09 01:31:11;;;;;;;36.13;17.75;;;0.90;99.90;;;;;;5032071;28;20053;-75
2023/03/09 01:33:40;;;;;;;43.72;18.65;;;1.00;99.90;;;;;;5033515;28;20091;-74
2023/03/09 01:36:10;;;;;;;35.38;17.67;;;1.00;99.90;;;;;;5037521;28;20096;-75
2023/03/09 01:38:37;;;;;;;30.38;16.10;;;1.10;99.90;;;;;;5047108;28;20045;-74
2023/03/09 01:41:04;;;;;;;30.33;15.52;;;1.10;99.90;;;;;;5037977;28;20158;-76
2023/03/09 01:43:39;;;;;;;27.08;15.00;;;1.10;99.90;;;;;;5038833;28;20037;-75
2023/03/09 01:46:24;;;;;;;25.70;14.35;;;1.20;99.90;;;;;;5038645;28;20052;-74
2023/03/09 01:49:20;;;;;;;24.17;13.88;;;1.20;99.90;;;;;;5056439;28;20052;-75
2023/03/09 01:52:19;;;;;;;21.30;13.07;;;1.20;99.90;;;;;;5033375;28;20041;-76
2023/03/09 01:54:53;;;;;;;20.75;13.27;;;1.20;99.90;;;;;;5048241;28;20055;-75
2023/03/09 01:57:29;;;;;;;18.98;12.75;;;1.10;99.90;;;;;;5052906;28;20059;-73
2023/03/09 02:00:05;;;;;;;17.90;11.98;;;1.20;99.90;;;;;;5043347;28;20182;-74
2023/03/09 02:02:44;;;;;;;18.10;11.80;;;1.10;99.90;;;;;;5041158;28;20780;-73
2023/03/09 02:05:55;;;;;;;17.23;12.00;;;1.10;99.90;;;;;;5034454;28;20052;-76
2023/03/09 02:08:24;;;;;;;19.48;11.23;;;1.10;99.90;;;;;;5004255;28;20052;-76
2023/03/09 02:11:03;;;;;;;16.92;11.50;;;1.10;99.90;;;;;;5037623;28;20067;-76
2023/03/09 02:13:36;;;;;;;19.83;12.30;;;1.00;99.90;;;;;;5035949;28;20055;-76
2023/03/09 02:16:03;;;;;;;22.85;13.20;;;1.10;99.90;;;;;;5038782;28;20094;-76
2023/03/09 02:18:32;;;;;;;25.75;14.60;;;1.10;99.90;;;;;;5035077;28;20542;-75
2023/03/09 02:21:05;;;;;;;23.70;14.07;;;1.10;99.90;;;;;;5056626;28;20424;-75
2023/03/09 02:23:51;;;;;;;25.07;14.40;;;1.30;99.90;;;;;;5052485;28;20060;-76
2023/03/09 02:26:39;;;;;;;26.65;14.38;;;1.20;99.90;;;;;;5028951;28;20292;-75
2023/03/09 02:29:06;;;;;;;24.90;15.18;;;1.30;99.90;;;;;;5032459;28;20144;-75
2023/03/09 02:31:33;;;;;;;23.40;14.80;;;1.20;99.90;;;;;;5044338;28;20078;-76
2023/03/09 02:34:00;;;;;;;19.83;12.75;;;1.40;99.90;;;;;;5040315;28;20076;-74
2023/03/09 02:36:27;;;;;;;21.02;13.85;;;1.40;99.90;;;;;;5037232;28;20555;-75
2023/03/09 02:39:04;;;;;;;20.73;13.98;;;1.50;99.90;;;;;;5029337;28;20447;-75
2023/03/09 02:41:31;;;;;;;26.90;15.57;;;1.40;99.90;;;;;;5035378;28;20036;-75
2023/03/09 02:44:00;;;;;;;26.00;16.02;;;1.40;99.90;;;;;;5040082;28;20111;-76
2023/03/09 02:46:30;;;;;;;18.38;13.93;;;1.50;99.90;;;;;;5035933;28;20061;-74
2023/03/09 02:48:57;;;;;;;19.75;12.82;;;1.50;99.90;;;;;;5036832;28;20384;-75
2023/03/09 02:51:24;;;;;;;24.70;15.15;;;1.40;99.90;;;;;;5036679;28;20254;-75
2023/03/09 02:53:51;;;;;;;23.52;14.30;;;1.40;99.90;;;;;;5047068;28;20071;-76
2023/03/09 02:56:18;;;;;;;19.85;14.25;;;1.50;99.90;;;;;;5037418;28;20056;-76
2023/03/09 02:58:45;;;;;;;19.40;13.73;;;1.60;99.90;;;;;;5020757;28;20559;-76
2023/03/09 03:01:14;;;;;;;22.50;13.93;;;1.50;99.90;;;;;;5014964;28;20474;-76
2023/03/09 03:03:41;;;;;;;19.27;13.52;;;1.60;99.90;;;;;;5016892;28;20072;-74
2023/03/09 03:06:08;;;;;;;23.05;14.32;;;1.40;99.90;;;;;;5017051;28;20044;-76
2023/03/09 03:08:35;;;;;;;25.30;15.30;;;1.40;99.90;;;;;;5020049;28;20109;-75
2023/03/09 03:11:06;;;;;;;26.38;15.73;;;1.30;99.90;;;;;;5017554;28;20053;-76
2023/03/09 03:13:35;;;;;;;25.30;15.57;;;1.40;99.90;;;;;;5034480;28;20114;-75
2023/03/09 03:16:03;;;;;;;24.48;15.00;;;1.50;99.90;;;;;;5033173;28;20114;-76
2023/03/09 03:18:30;;;;;;;27.13;15.70;;;1.50;99.90;;;;;;5034838;28;20258;-75
2023/03/09 03:20:58;;;;;;;23.58;14.68;;;1.60;99.90;;;;;;5014946;28;20557;-75
2023/03/09 03:23:25;;;;;;;21.58;13.15;;;1.50;99.90;;;;;;5016851;28;20061;-74
2023/03/09 03:25:53;;;;;;;28.00;15.60;;;1.40;99.90;;;;;;5019601;28;20040;-76
2023/03/09 03:28:21;;;;;;;29.33;15.55;;;1.40;99.90;;;;;;5005690;28;20541;-74
2023/03/09 03:30:52;;;;;;;26.83;14.50;;;1.40;99.90;;;;;;5005272;28;20665;-76
2023/03/09 03:33:22;;;;;;;28.23;16.13;;;1.50;99.90;;;;;;5029579;28;20037;-75
2023/03/09 03:35:49;;;;;;;28.13;14.60;;;1.50;99.90;;;;;;5018348;28;20068;-76
2023/03/09 03:38:17;;;;;;;23.10;14.52;;;1.50;99.90;;;;;;5001971;28;20065;-75
2023/03/09 03:40:43;;;;;;;24.33;15.18;;;1.50;99.90;;;;;;5010358;28;20037;-75
2023/03/09 03:43:11;;;;;;;28.77;14.38;;;1.40;99.90;;;;;;5014777;28;20037;-75
2023/03/09 03:45:41;;;;;;;27.20;15.15;;;1.40;99.90;;;;;;5018117;28;20396;-75
2023/03/09 03:48:09;;;;;;;26.90;15.07;;;1.40;99.90;;;;;;5016549;28;20921;-74
2023/03/09 03:50:36;;;;;;;27.98;16.20;;;1.40;99.90;;;;;;5033283;28;20090;-75
2023/03/09 03:53:03;;;;;;;30.60;16.88;;;1.50;99.90;;;;;;5016309;28;20054;-76
2023/03/09 03:55:30;;;;;;;35.58;15.88;;;1.50;99.90;;;;;;5002009;28;20438;-76
2023/03/09 03:57:57;;;;;;;30.88;16.15;;;1.50;99.90;;;;;;5037832;28;20087;-75
2023/03/09 04:00:25;;;;;;;28.42;15.50;;;1.60;99.90;;;;;;5021369;28;20048;-75
2023/03/09 04:02:56;;;;;;;33.95;16.42;;;1.60;99.90;;;;;;5023245;28;20045;-76
2023/03/09 04:05:31;;;;;;;25.25;14.68;;;1.60;99.90;;;;;;5019039;28;20136;-75
2023/03/09 04:07:58;;;;;;;27.88;15.45;;;1.50;99.90;;;;;;5038085;28;20045;-76
2023/03/09 04:10:24;;;;;;;27.45;14.60;;;1.50;99.90;;;;;;5014744;28;20106;-75
2023/03/09 04:12:52;;;;;;;36.60;16.60;;;1.50;99.90;;;;;;5038898;28;20065;-76
2023/03/09 04:15:19;;;;;;;31.75;16.83;;;1.50;99.90;;;;;;5021806;28;20048;-76
2023/03/09 04:17:47;;;;;;;36.88;18.25;;;1.50;99.90;;;;;;5038844;28;20263;-77
2023/03/09 04:20:15;;;;;;;49.40;21.70;;;1.60;99.90;;;;;;5035279;28;20041;-74
2023/03/09 04:22:43;;;;;;;43.97;18.73;;;1.60;99.90;;;;;;5015707;28;20148;-75
2023/03/09 04:25:12;;;;;;;42.17;18.73;;;1.60;99.90;;;;;;5011608;28;20037;-76
2023/03/09 04:27:40;;;;;;;40.90;18.40;;;1.60;99.90;;;;;;5031303;28;20045;-76
2023/03/09 04:30:14;;;;;;;44.83;19.77;;;1.60;99.90;;;;;;5031771;28;20140;-75
2023/03/09 04:32:41;;;;;;;49.55;19.75;;;1.60;99.90;;;;;;5010217;28;20534;-76
2023/03/09 04:35:09;;;;;;;44.15;18.77;;;1.60;99.90;;;;;;4997864;28;20041;-75
2023/03/09 04:37:39;;;;;;;40.80;19.60;;;1.60;99.90;;;;;;5012753;28;20049;-75
2023/03/09 04:40:07;;;;;;;35.75;17.73;;;1.60;99.90;;;;;;5033537;28;20045;-76
2023/03/09 04:42:34;;;;;;;38.38;19.98;;;1.60;99.90;;;;;;5019553;28;20124;-75
2023/03/09 04:45:03;;;;;;;41.42;21.70;;;1.60;99.90;;;;;;5000197;28;20295;-76
2023/03/09 04:47:29;;;;;;;35.50;18.42;;;1.60;99.90;;;;;;5012176;28;20144;-76
2023/03/09 04:49:56;;;;;;;46.20;20.92;;;1.50;99.90;;;;;;5017902;28;20045;-77
2023/03/09 04:52:24;;;;;;;49.10;21.75;;;1.50;99.90;;;;;;4996800;28;20055;-74
2023/03/09 04:54:54;;;;;;;49.42;21.83;;;1.50;99.90;;;;;;5001230;28;20954;-76
2023/03/09 04:57:21;;;;;;;52.47;21.42;;;1.40;99.90;;;;;;5014830;28;20420;-74
2023/03/09 04:59:48;;;;;;;49.53;20.90;;;1.40;99.90;;;;;;5013012;28;20107;-75
2023/03/09 05:02:15;;;;;;;60.38;23.23;;;1.30;99.90;;;;;;5015221;28;20036;-75
2023/03/09 05:04:44;;;;;;;61.05;22.75;;;1.40;99.90;;;;;;5028697;28;20049;-76
2023/03/09 05:07:11;;;;;;;57.25;20.65;;;1.30;99.90;;;;;;5011576;28;20851;-77
2023/03/09 05:09:39;;;;;;;52.05;20.33;;;1.20;99.90;;;;;;5007575;28;20048;-76
2023/03/09 05:12:06;;;;;;;55.08;22.27;;;1.10;99.90;;;;;;5016569;28;20091;-78
2023/03/09 05:14:35;;;;;;;48.22;20.77;;;1.10;99.90;;;;;;5026523;28;20039;-76
2023/03/09 05:17:03;;;;;;;58.65;22.25;;;1.00;99.90;;;;;;5028036;28;20665;-76
2023/03/09 05:19:30;;;;;;;55.50;21.88;;;1.00;99.90;;;;;;5014560;28;20037;-77
2023/03/09 05:22:00;;;;;;;64.38;22.95;;;1.00;99.90;;;;;;5016043;28;20104;-76
2023/03/09 05:24:26;;;;;;;59.95;21.92;;;1.20;99.90;;;;;;5033496;28;20233;-77
2023/03/09 05:26:53;;;;;;;71.28;24.48;;;1.30;99.90;;;;;;5030417;28;20048;-75
2023/03/09 05:29:24;;;;;;;65.82;24.63;;;1.30;99.90;;;;;;5019313;28;20480;-77
2023/03/09 05:31:51;;;;;;;60.63;22.83;;;1.40;99.90;;;;;;5015824;28;20037;-77
2023/03/09 05:34:17;;;;;;;61.95;24.10;;;1.40;99.90;;;;;;5030144;28;20494;-76
2023/03/09 05:36:44;;;;;;;58.50;24.90;;;1.30;99.90;;;;;;5027926;28;20045;-76
2023/03/09 05:39:17;;;;;;;62.88;24.80;;;1.30;99.90;;;;;;5024277;28;20040;-75
2023/03/09 05:41:44;;;;;;;59.58;23.88;;;1.40;99.90;;;;;;5017007;28;20060;-76
2023/03/09 05:44:20;;;;;;;66.43;25.13;;;1.30;99.90;;;;;;5013767;28;20606;-77
2023/03/09 05:46:47;;;;;;;60.85;25.02;;;1.40;99.90;;;;;;5032976;28;20719;-77
2023/03/09 05:49:14;;;;;;;67.43;25.35;;;1.40;99.90;;;;;;5013847;28;20036;-78
2023/03/09 05:51:41;;;;;;;59.80;24.33;;;1.40;99.90;;;;;;5022952;28;20432;-75
2023/03/09 05:54:08;;;;;;;64.20;24.27;;;1.40;99.90;;;;;;5016457;28;20110;-77
2023/03/09 05:56:38;;;;;;;57.83;25.48;;;1.50;99.90;;;;;;5010910;28;20497;-76
2023/03/09 05:59:05;;;;;;;63.45;25.83;;;1.50;99.90;;;;;;5035273;28;20040;-75
2023/03/09 06:01:32;;;;;;;73.72;26.73;;;1.40;99.90;;;;;;5034334;28;20410;-76
2023/03/09 06:04:16;;;;;;;63.88;25.60;;;1.50;99.90;;;;;;5035567;28;20082;-77
2023/03/09 06:06:49;;;;;;;56.17;26.65;;;1.50;99.90;;;;;;5028127;28;20403;-77
2023/03/09 06:09:16;;;;;;;69.07;27.80;;;1.40;99.90;;;;;;5022103;28;20052;-75
2023/03/09 06:11:43;;;;;;;68.78;28.88;;;1.40;99.90;;;;;;5053116;28;20053;-76
2023/03/09 06:14:10;;;;;;;64.82;28.25;;;1.40;99.90;;;;;;5033298;28;20040;-76
2023/03/09 06:16:40;;;;;;;65.38;27.95;;;1.40;99.90;;;;;;5031182;28;20048;-76
2023/03/09 06:19:07;;;;;;;55.58;26.80;;;1.60;99.90;;;;;;5043739;28;20500;-76
2023/03/09 06:21:35;;;;;;;59.85;28.00;;;1.50;99.90;;;;;;5016798;28;20032;-78
2023/03/09 06:24:03;;;;;;;61.00;28.27;;;1.40;99.90;;;;;;5039721;28;20064;-76
2023/03/09 06:26:30;;;;;;;67.55;29.77;;;1.50;99.90;;;;;;5043674;28;20129;-75
2023/03/09 06:29:03;;;;;;;69.90;28.02;;;1.60;99.90;;;;;;5043528;28;20211;-77
2023/03/09 06:31:32;;;;;;;65.18;29.98;;;1.80;99.90;;;;;;5019116;28;20056;-75
2023/03/09 06:33:59;;;;;;;75.78;33.20;;;1.90;99.90;;;;;;5042182;28;20141;-76
2023/03/09 06:36:27;;;;;;;73.88;31.60;;;1.80;99.90;;;;;;5051068;28;20076;-75
2023/03/09 06:38:54;;;;;;;76.82;28.98;;;1.80;99.90;;;;;;5035564;28;20451;-77
2023/03/09 06:41:31;;;;;;;76.43;31.92;;;2.00;99.90;;;;;;5049024;28;20039;-75
2023/03/09 06:44:10;;;;;;;81.15;32.70;;;2.00;99.90;;;;;;5037445;28;20045;-75
2023/03/09 06:46:39;;;;;;;84.07;33.08;;;2.10;99.90;;;;;;5035128;28;20052;-75
2023/03/09 06:49:06;;;;;;;74.93;32.28;;;2.10;99.90;;;;;;5021337;28;20057;-76
2023/03/09 06:51:33;;;;;;;81.70;32.85;;;2.00;99.90;;;;;;5032949;28;20047;-76
2023/03/09 06:54:00;;;;;;;77.07;34.70;;;2.00;99.90;;;;;;5031899;28;20071;-75
2023/03/09 06:56:31;;;;;;;95.40;37.72;;;2.00;99.90;;;;;;5035940;28;20044;-76
2023/03/09 06:58:58;;;;;;;81.07;35.10;;;1.90;99.90;;;;;;5035621;28;20041;-76
2023/03/09 07:01:25;;;;;;;240.50;46.33;;;1.80;99.90;;;;;;5028830;28;20120;-76
2023/03/09 07:03:57;;;;;;;347.13;53.38;;;1.90;99.90;;;;;;5000789;28;20041;-76
2023/03/09 07:06:23;;;;;;;415.20;57.28;;;2.00;99.90;;;;;;5021695;28;20420;-74
2023/03/09 07:08:50;;;;;;;432.80;56.53;;;1.90;99.90;;;;;;5012118;28;20132;-76
2023/03/09 07:11:17;;;;;;;454.38;61.58;;;1.90;99.90;;;;;;5008698;28;20049;-75
2023/03/09 07:13:43;;;;;;;400.60;53.60;;;1.90;99.90;;;;;;5023613;28;20071;-75
2023/03/09 07:16:10;;;;;;;376.50;56.38;;;1.80;99.90;;;;;;5011308;28;20458;-76
2023/03/09 07:18:37;;;;;;;540.13;69.32;;;1.80;99.90;;;;;;5026825;28;20499;-76
2023/03/09 07:21:03;;;;;;;444.35;60.38;;;1.70;99.90;;;;;;5027635;28;20041;-75
2023/03/09 07:23:32;;;;;;;432.17;60.88;;;1.70;99.90;;;;;;5008876;28;20133;-76
2023/03/09 07:26:01;;;;;;;456.95;56.03;;;1.70;99.90;;;;;;5025861;28;20052;-75
2023/03/09 07:28:28;;;;;;;460.88;55.75;;;1.70;99.90;;;;;;5026300;28;20485;-76
2023/03/09 07:30:54;;;;;;;437.38;57.90;;;1.60;99.90;;;;;;5012159;28;20064;-74
2023/03/09 07:33:21;;;;;;;485.73;57.97;;;1.60;99.90;;;;;;5011841;28;20044;-74
2023/03/09 07:35:48;;;;;;;486.60;57.90;;;1.50;99.90;;;;;;5021805;28;20056;-76
2023/03/09 07:38:15;;;;;;;397.88;61.60;;;1.70;99.90;;;;;;5025509;28;20148;-74
2023/03/09 07:40:42;;;;;;;344.23;44.95;;;1.80;99.90;;;;;;5027017;28;20434;-78
2023/03/09 07:43:11;;;;;;;301.02;48.22;;;1.90;99.90;;;;;;5027070;28;20045;-78
2023/03/09 07:45:43;;;;;;;;;;;1.80;99.90;;;;;;5008163;28;20894;-74
2023/03/09 07:48:11;;;;;;;212.52;44.70;;;1.80;99.90;;;;;;5009858;28;19921;-74
2023/03/09 07:50:38;;;;;;;143.32;34.03;;;1.80;99.90;;;;;;5014383;28;20045;-76
2023/03/09 07:53:04;;;;;;;140.82;30.17;;;1.80;99.90;;;;;;5032970;28;20033;-74
2023/03/09 07:55:34;;;;;;;92.57;28.30;;;1.80;99.90;;;;;;5032341;28;20292;-77
2023/03/09 07:58:04;;;;;;;89.97;26.58;;;1.70;99.90;;;;;;5032550;28;20044;-76
2023/03/09 08:00:32;;;;;;;129.55;31.20;;;1.80;99.90;;;;;;5015345;28;20049;-75
2023/03/09 08:03:00;;;;;;;106.60;31.27;;;1.80;99.90;;;;;;5035344;28;20554;-75
2023/03/09 08:05:27;;;;;;;81.20;30.48;;;1.90;99.90;;;;;;5013999;28;20056;-75
2023/03/09 08:07:54;;;;;;;76.28;29.00;;;2.10;99.90;;;;;;5006768;28;20129;-75
2023/03/09 08:10:21;;;;;;;70.13;30.67;;;2.00;99.90;;;;;;5030253;28;20435;-76
2023/03/09 08:12:49;;;;;;;69.60;30.88;;;2.20;99.90;;;;;;5009192;28;20640;-76
2023/03/09 08:15:18;;;;;;;65.10;29.52;;;2.40;99.90;;;;;;5029972;28;20064;-75
2023/03/09 08:17:45;;;;;;;76.90;26.90;;;2.30;99.90;;;;;;5032405;28;20040;-74
2023/03/09 08:20:12;;;;;;;73.95;28.38;;;2.10;99.90;;;;;;5030876;28;20111;-75
2023/03/09 08:22:39;;;;;;;83.68;32.58;;;2.10;99.90;;;;;;5013981;28;20044;-75
2023/03/09 08:25:08;;;;;;;62.85;30.27;;;2.10;99.90;;;;;;5014964;28;20041;-76
2023/03/09 08:27:43;;;;;;;67.50;31.48;;;2.40;99.90;;;;;;5030424;28;20041;-74
2023/03/09 08:30:11;;;;;;;80.55;35.20;;;2.40;99.90;;;;;;5012936;28;20538;-73
2023/03/09 08:32:38;;;;;;;86.38;36.03;;;2.30;99.90;;;;;;5030550;28;20041;-74
2023/03/09 08:35:05;;;;;;;78.47;36.78;;;2.20;99.90;;;;;;5031589;28;20049;-75
2023/03/09 08:37:32;;;;;;;76.82;35.33;;;2.20;99.90;;;;;;5028830;28;20044;-75
2023/03/09 08:39:59;;;;;;;55.92;29.17;;;2.40;99.90;;;;;;5012942;28;20044;-75
2023/03/09 08:42:26;;;;;;;66.95;33.63;;;2.30;99.90;;;;;;5004454;28;20037;-76
2023/03/09 08:44:52;;;;;;;63.90;33.88;;;2.40;99.90;;;;;;5032076;28;20268;-76
2023/03/09 08:47:19;;;;;;;64.50;33.45;;;2.50;99.90;;;;;;5031368;28;20052;-75
2023/03/09 08:49:48;;;;;;;61.95;29.85;;;2.40;99.90;;;;;;5030276;28;20517;-75
2023/03/09 08:52:15;;;;;;;62.13;30.83;;;2.40;99.90;;;;;;5008696;28;20455;-75
2023/03/09 08:54:42;;;;;;;59.72;29.63;;;2.50;99.90;;;;;;5029689;28;20052;-75
2023/03/09 08:57:09;;;;;;;54.20;27.88;;;2.60;99.90;;;;;;5033098;28;20059;-76
2023/03/09 08:59:36;;;;;;;69.30;33.33;;;2.70;99.90;;;;;;5048151;28;20075;-75
2023/03/09 09:02:04;;;;;;;67.93;33.90;;;2.70;99.90;;;;;;5032415;28;20461;-76
2023/03/09 09:04:31;;;;;;;63.40;31.98;;;2.70;99.90;;;;;;5031630;28;20178;-75
2023/03/09 09:06:58;;;;;;;66.53;32.55;;;2.80;99.90;;;;;;5052565;28;20245;-76
2023/03/09 09:09:25;;;;;;;63.28;33.08;;;2.80;99.90;;;;;;5031071;28;20028;-76
2023/03/09 09:11:52;;;;;;;65.88;34.85;;;2.80;99.90;;;;;;5033826;28;20063;-74
2023/03/09 09:14:18;;;;;;;63.05;33.88;;;2.90;99.90;;;;;;5047472;28;20033;-76
2023/03/09 09:16:45;;;;;;;76.25;37.40;;;2.80;99.90;;;;;;5015932;28;20613;-75
2023/03/09 09:19:11;;;;;;;75.68;38.22;;;2.80;99.90;;;;;;5051919;28;20040;-76
2023/03/09 09:21:38;;;;;;;79.50;41.88;;;2.80;99.90;;;;;;5048996;28;20457;-76
2023/03/09 09:24:05;;;;;;;78.10;37.75;;;2.80;99.90;;;;;;5037315;28;20247;-77
2023/03/09 09:26:32;;;;;;;71.85;35.33;;;2.80;99.90;;;;;;5028047;28;20040;-76
2023/03/09 09:29:00;;;;;;;74.65;35.22;;;2.80;99.90;;;;;;5036906;28;20137;-76
2023/03/09 09:31:28;;;;;;;68.50;35.55;;;2.70;99.90;;;;;;5047607;28;20510;-76
2023/03/09 09:33:58;;;;;;;77.75;37.28;;;2.80;99.90;;;;;;5015508;28;20072;-76
2023/03/09 09:36:26;;;;;;;73.60;36.97;;;2.90;99.90;;;;;;5029632;28;20157;-77
2023/03/09 09:38:53;;;;;;;70.30;34.92;;;2.90;99.90;;;;;;5051745;28;20047;-76
2023/03/09 09:41:23;;;;;;;72.97;37.25;;;2.90;99.90;;;;;;5031777;28;20044;-76
2023/03/09 09:43:53;;;;;;;78.05;39.72;;;3.00;99.90;;;;;;5032522;28;20524;-76
2023/03/09 09:46:21;;;;;;;81.32;39.92;;;3.10;99.90;;;;;;5048449;28;20087;-75
2023/03/09 09:48:49;;;;;;;83.38;41.28;;;3.20;99.90;;;;;;5036018;28;20090;-77
2023/03/09 09:51:44;;;;;;;80.55;41.58;;;3.20;99.90;;;;;;5043771;28;20045;-77
2023/03/09 09:54:35;;;;;;;80.40;40.57;;;3.20;99.90;;;;;;5043547;28;20249;-76
2023/03/09 09:57:09;;;;;;;85.13;41.15;;;3.10;99.90;;;;;;5063731;28;20053;-76
2023/03/09 09:59:41;;;;;;;84.88;39.78;;;3.00;99.90;;;;;;5047555;28;20055;-76
2023/03/09 10:02:08;;;;;;;78.20;40.58;;;3.00;99.90;;;;;;5059685;28;20066;-76
2023/03/09 10:04:53;;;;;;;82.47;41.47;;;3.10;99.90;;;;;;5054417;28;20143;-75
2023/03/09 10:07:23;;;;;;;81.38;40.60;;;3.10;99.90;;;;;;5055752;28;20068;-76
2023/03/09 10:09:58;;;;;;;90.28;42.58;;;3.10;99.90;;;;;;5052465;28;20296;-78
2023/03/09 10:12:25;;;;;;;85.75;40.38;;;3.10;99.90;;;;;;5049271;28;20044;-78
2023/03/09 10:15:06;;;;;;;87.57;40.80;;;3.00;99.90;;;;;;5055217;28;20048;-76
2023/03/09 10:17:39;;;;;;;73.00;37.20;;;3.00;99.90;;;;;;5051107;28;20048;-76
2023/03/09 10:20:29;;;;;;;77.93;40.63;;;2.90;99.90;;;;;;5051553;28;20182;-75
2023/03/09 10:22:57;;;;;;;79.20;39.20;;;3.00;99.90;;;;;;5067022;28;20339;-77
2023/03/09 10:25:26;;;;;;;69.72;36.38;;;2.90;99.90;;;;;;5032928;28;20246;-77
2023/03/09 10:28:14;;;;;;;74.28;36.05;;;2.90;99.90;;;;;;5031461;28;20037;-77
2023/03/09 10:30:52;;;;;;;60.70;33.58;;;2.80;99.90;;;;;;5051149;28;20037;-76
2023/03/09 10:33:34;;;;;;;59.80;32.50;;;3.00;99.90;;;;;;5031114;28;20344;-77
2023/03/09 10:36:15;;;;;;;67.38;36.10;;;3.10;99.90;;;;;;5050002;28;20062;-78
2023/03/09 10:38:42;;;;;;;66.80;37.20;;;3.20;99.90;;;;;;5052650;28;20358;-76
2023/03/09 10:41:19;;;;;;;72.55;41.95;;;3.30;99.90;;;;;;5029527;28;20056;-77
2023/03/09 10:43:47;;;;;;;64.57;39.28;;;3.40;99.90;;;;;;5034206;28;20533;-77
2023/03/09 10:46:15;;;;;;;72.15;42.50;;;3.50;99.90;;;;;;5050491;28;20079;-77
2023/03/09 10:48:44;;;;;;;80.38;43.90;;;3.40;99.90;;;;;;5038885;28;20849;-77
2023/03/09 10:51:22;;;;;;;85.72;45.67;;;3.20;99.90;;;;;;5031855;28;20438;-77
2023/03/09 10:53:49;;;;;;;77.82;41.67;;;3.20;99.90;;;;;;5033868;28;20121;-79
2023/03/09 10:56:29;;;;;;;71.03;39.38;;;3.30;99.90;;;;;;5028507;28;20050;-76
2023/03/09 10:59:07;;;;;;;74.45;42.67;;;3.40;99.90;;;;;;5046663;23;20052;-78
2023/03/09 11:01:40;;;;;;;67.85;38.22;;;3.40;99.90;;;;;;5028866;28;20494;-79
2023/03/09 11:04:39;;;;;;;66.65;35.80;;;3.40;99.90;;;;;;5032425;28;20359;-78
2023/03/09 11:07:28;;;;;;;62.88;38.55;;;3.30;99.90;;;;;;4961382;28;20124;-80
2023/03/09 11:09:54;;;;;;;71.70;39.97;;;3.30;99.90;;;;;;5008495;28;20045;-78
2023/03/09 11:12:38;;;;;;;68.68;36.80;;;3.20;99.90;;;;;;5001280;28;20061;-78
2023/03/09 11:15:14;;;;;;;64.80;35.60;;;3.00;99.90;;;;;;4991173;28;20072;-77
2023/03/09 11:17:45;;;;;;;65.30;35.72;;;3.00;99.90;;;;;;5009338;28;20820;-77
2023/03/09 11:20:21;;;;;;;62.85;32.38;;;3.10;99.90;;;;;;4985066;28;20049;-78
2023/03/09 11:23:09;;;;;;;74.00;36.25;;;3.00;99.90;;;;;;5008882;28;20152;-78
2023/03/09 11:25:42;;;;;;;69.05;37.53;;;3.10;99.90;;;;;;5004585;28;20270;-78
2023/03/09 11:28:39;;;;;;;67.93;35.60;;;3.20;99.90;;;;;;4990753;28;20496;-78
2023/03/09 11:31:16;;;;;;;65.85;34.67;;;3.10;99.90;;;;;;4976303;28;20045;-79
2023/03/09 11:33:45;;;;;;;72.72;38.72;;;3.00;99.90;;;;;;5008742;28;20050;-78
2023/03/09 11:36:17;;;;;;;80.50;42.85;;;3.00;99.90;;;;;;5006596;28;20042;-80
2023/03/09 11:38:45;;;;;;;70.07;36.33;;;3.10;99.90;;;;;;4978059;28;20041;-79
2023/03/09 11:41:18;;;;;;;69.65;35.88;;;3.00;99.90;;;;;;4988352;28;20054;-79
2023/03/09 11:43:50;;;;;;;74.22;39.90;;;3.00;99.90;;;;;;4987228;28;20555;-80
2023/03/09 11:46:18;;;;;;;77.57;39.22;;;3.10;99.90;;;;;;5010257;28;20359;-78
2023/03/09 11:48:51;;;;;;;68.25;37.58;;;3.10;99.90;;;;;;4994358;28;20053;-80
2023/03/09 11:51:42;;;;;;;74.10;38.17;;;3.10;99.90;;;;;;4982230;28;20046;-79
2023/03/09 11:54:16;;;;;;;73.93;40.35;;;3.00;99.90;;;;;;5003397;28;20164;-81
2023/03/09 11:56:47;;;;;;;83.32;42.10;;;3.00;99.90;;;;;;5003282;28;20042;-80
2023/03/09 11:59:44;;;;;;;75.88;39.10;;;2.90;99.90;;;;;;5007947;28;20244;-81
2023/03/09 12:02:33;;;;;;;78.15;38.03;;;2.90;99.90;;;;;;5025501;28;20181;-80
2023/03/09 12:05:01;;;;;;;79.90;40.55;;;2.90;99.90;;;;;;5014161;28;20042;-81
2023/03/09 12:07:38;;;;;;;86.45;44.35;;;2.80;99.90;;;;;;5015002;28;20033;-81
2023/03/09 12:10:33;;;;;;;90.93;42.35;;;2.70;99.90;;;;;;5018549;28;20362;-81
2023/03/09 12:13:12;;;;;;;82.82;43.17;;;2.60;99.90;;;;;;5014546;28;20109;-83
2023/03/09 12:15:59;;;;;;;85.28;40.40;;;2.60;99.90;;;;;;5019885;28;20327;-82
2023/03/09 12:18:33;;;;;;;85.32;42.10;;;2.60;99.90;;;;;;5003190;28;20135;-81
2023/03/09 12:21:04;;;;;;;82.00;37.28;;;2.50;99.90;;;;;;5011922;28;20137;-83
2023/03/09 12:23:36;;;;;;;79.30;35.63;;;2.70;99.90;;;;;;5015299;28;20038;-80
2023/03/09 12:26:18;;;;;;;79.25;35.33;;;2.80;99.90;;;;;;5007216;28;20054;-83
2023/03/09 12:28:56;;;;;;;73.80;32.83;;;2.80;99.90;;;;;;5008688;28;20531;-83
2023/03/09 12:31:37;;;;;;;69.82;34.42;;;2.70;99.90;;;;;;5002320;28;20566;-81
2023/03/09 12:34:10;;;;;;;69.43;33.72;;;2.80;99.90;;;;;;5006878;28;20414;-82
2023/03/09 12:36:41;;;;;;;73.35;33.85;;;2.80;99.90;;;;;;4995843;28;20277;-83
2023/03/09 12:39:28;;;;;;;72.45;34.90;;;2.80;99.90;;;;;;4998233;28;20487;-82
2023/03/09 12:42:08;;;;;;;71.00;34.03;;;2.70;99.90;;;;;;5011240;28;20038;-81
2023/03/09 12:44:50;;;;;;;77.40;33.80;;;2.80;99.90;;;;;;5003440;28;20057;-85
2023/03/09 12:47:20;;;;;;;74.57;33.92;;;2.80;99.90;;;;;;5012926;28;20054;-82
2023/03/09 12:49:53;;;;;;;75.78;36.33;;;2.90;99.90;;;;;;5013803;28;20078;-82
2023/03/09 12:52:51;;;;;;;74.95;35.28;;;3.00;99.90;;;;;;5001563;28;20042;-83